createdAt,value
2018-12-26T00:00:17.309Z,3.20
2018-12-26T00:05:22.586Z,2.90
2018-12-26T00:10:27.254Z,2.40
2018-12-26T00:15:31.780Z,2.60
2018-12-26T00:20:36.696Z,2.20
2018-12-26T00:25:42.506Z,1.60
2018-12-26T00:30:47.208Z,1.30
2018-12-26T00:35:51.778Z,1.40
2018-12-26T00:40:56.401Z,1.30
2018-12-26T00:46:00.937Z,1.50
2018-12-26T00:51:05.473Z,2.00
2018-12-26T00:56:10.556Z,1.50
2018-12-26T01:01:15.643Z,1.50
2018-12-26T01:06:20.135Z,2.30
2018-12-26T01:11:24.662Z,2.60
2018-12-26T01:16:29.262Z,3.10
2018-12-26T01:21:33.767Z,3.20
2018-12-26T01:26:38.198Z,2.90
2018-12-26T01:31:42.892Z,2.10
2018-12-26T01:36:47.978Z,1.50
2018-12-26T01:41:52.430Z,1.00
2018-12-26T01:46:57.128Z,1.20
2018-12-26T01:52:01.760Z,1.00
2018-12-26T01:57:06.526Z,1.40
2018-12-26T02:02:10.991Z,1.10
2018-12-26T02:07:15.618Z,0.90
2018-12-26T02:12:20.486Z,1.00
2018-12-26T02:17:25.127Z,1.20
2018-12-26T02:22:30.111Z,1.60
2018-12-26T02:27:34.631Z,1.50
2018-12-26T02:32:39.150Z,1.60
2018-12-26T02:37:43.742Z,1.80
2018-12-26T02:42:48.294Z,1.90
2018-12-26T02:47:52.834Z,1.70
2018-12-26T02:52:57.448Z,1.40
2018-12-26T02:58:01.915Z,1.30
2018-12-26T03:03:06.613Z,0.90
2018-12-26T03:08:11.314Z,1.80
2018-12-26T03:13:16.034Z,1.90
2018-12-26T03:18:20.924Z,1.10
2018-12-26T03:23:27.114Z,0.90
2018-12-26T03:28:31.740Z,1.60
2018-12-26T03:33:36.499Z,1.80
2018-12-26T03:38:41.049Z,1.10
2018-12-26T03:43:45.933Z,1.10
2018-12-26T03:48:50.587Z,1.90
2018-12-26T03:53:55.381Z,2.50
2018-12-26T03:59:00.962Z,2.90
2018-12-26T04:04:05.857Z,2.40
2018-12-26T04:09:10.438Z,2.50
2018-12-26T04:14:14.969Z,2.00
2018-12-26T04:19:19.537Z,1.60
2018-12-26T04:24:24.534Z,2.00
2018-12-26T04:29:29.498Z,1.60
2018-12-26T04:34:33.978Z,1.40
2018-12-26T04:39:38.634Z,1.20
2018-12-26T04:44:43.261Z,1.50
2018-12-26T04:49:48.297Z,2.10
2018-12-26T04:54:52.862Z,1.50
2018-12-26T04:59:57.465Z,1.50
2018-12-26T05:05:02.104Z,1.80
2018-12-26T05:10:07.214Z,2.10
2018-12-26T05:15:11.750Z,1.50
2018-12-26T05:20:16.448Z,2.20
2018-12-26T05:25:21.259Z,1.80
2018-12-26T05:30:25.820Z,1.50
2018-12-26T05:35:30.904Z,1.90
2018-12-26T05:40:35.767Z,1.90
2018-12-26T05:45:40.399Z,1.70
2018-12-26T05:50:44.857Z,1.80
2018-12-26T05:55:49.394Z,2.30
2018-12-26T06:00:53.934Z,2.30
2018-12-26T06:05:58.533Z,2.00
2018-12-26T06:11:03.061Z,1.60
2018-12-26T06:16:07.789Z,1.70
2018-12-26T06:21:59.747Z,1.70
2018-12-26T06:27:07.542Z,1.80
2018-12-26T06:32:12.121Z,1.90
2018-12-26T06:37:16.759Z,1.40
2018-12-26T06:42:21.297Z,1.40
2018-12-26T06:47:26.210Z,2.00
2018-12-26T06:52:31.254Z,2.10
2018-12-26T06:57:35.871Z,2.10
2018-12-26T07:02:40.492Z,1.70
2018-12-26T07:07:45.268Z,1.50
2018-12-26T07:12:49.810Z,1.40
2018-12-26T07:17:54.278Z,1.30
2018-12-26T07:23:01.882Z,1.50
2018-12-26T07:28:09.341Z,1.40
2018-12-26T07:33:12.623Z,1.40
2018-12-26T07:38:17.179Z,1.30
2018-12-26T07:43:21.724Z,1.20
2018-12-26T07:48:26.238Z,1.70
2018-12-26T07:53:30.970Z,1.50
2018-12-26T07:58:35.524Z,1.60
2018-12-26T08:03:40.174Z,1.70
2018-12-26T08:08:44.749Z,1.80
2018-12-26T08:13:49.473Z,2.60
2018-12-26T08:18:54.146Z,2.30
2018-12-26T08:23:58.848Z,2.70
2018-12-26T08:29:03.495Z,3.80
2018-12-26T08:34:08.150Z,3.30
2018-12-26T08:39:12.770Z,3.60
2018-12-26T08:44:17.367Z,2.50
2018-12-26T08:49:22.201Z,2.60
2018-12-26T08:54:26.904Z,2.60
2018-12-26T08:59:31.379Z,2.90
2018-12-26T09:04:36.223Z,2.80
2018-12-26T09:09:40.850Z,2.80
2018-12-26T09:14:45.582Z,2.70
2018-12-26T09:19:50.082Z,2.60
2018-12-26T09:24:56.378Z,3.20
2018-12-26T09:30:01.129Z,3.50
2018-12-26T09:35:07.592Z,3.20
2018-12-26T09:40:12.298Z,3.80
2018-12-26T09:45:16.970Z,4.00
2018-12-26T09:50:21.543Z,3.90
2018-12-26T09:55:26.184Z,3.80
2018-12-26T10:00:30.910Z,4.20
2018-12-26T10:05:35.543Z,4.40
2018-12-26T10:10:40.140Z,3.60
2018-12-26T10:15:44.871Z,4.00
2018-12-26T10:20:49.386Z,4.00
2018-12-26T10:25:54.015Z,3.90
2018-12-26T10:30:58.580Z,4.10
2018-12-26T10:36:03.247Z,3.80
2018-12-26T10:41:07.887Z,3.80
2018-12-26T10:46:12.354Z,4.20
2018-12-26T10:51:17.714Z,3.90
2018-12-26T10:56:22.326Z,3.80
2018-12-26T11:01:26.787Z,4.10
2018-12-26T11:06:31.354Z,4.00
2018-12-26T11:11:35.870Z,4.60
2018-12-26T11:16:40.628Z,4.90
2018-12-26T11:21:45.463Z,4.50
2018-12-26T11:26:50.002Z,4.60
2018-12-26T11:31:54.465Z,4.80
2018-12-26T11:36:59.158Z,5.30
2018-12-26T11:42:03.874Z,5.80
2018-12-26T11:47:08.546Z,5.30
2018-12-26T11:52:13.132Z,5.50
2018-12-26T11:57:17.881Z,5.80
2018-12-26T12:02:22.873Z,6.20
2018-12-26T12:07:27.559Z,6.30
2018-12-26T12:12:32.168Z,7.30
2018-12-26T12:17:38.757Z,7.90
2018-12-26T12:22:43.516Z,7.10
2018-12-26T12:27:48.062Z,6.70
2018-12-26T12:32:52.657Z,7.50
2018-12-26T12:37:57.848Z,7.00
2018-12-26T12:43:02.406Z,8.10
2018-12-26T12:48:07.034Z,8.60
2018-12-26T12:53:11.613Z,8.20
2018-12-26T12:58:16.390Z,9.30
2018-12-26T13:03:21.088Z,9.20
2018-12-26T13:08:25.558Z,8.80
2018-12-26T13:13:31.784Z,7.90
2018-12-26T13:18:36.532Z,7.50
2018-12-26T13:23:41.330Z,7.90
2018-12-26T13:28:45.907Z,8.40
2018-12-26T13:33:50.506Z,8.20
2018-12-26T13:39:05.780Z,8.90
2018-12-26T13:44:17.775Z,8.60
2018-12-26T13:49:32.614Z,8.00
2018-12-26T13:54:37.422Z,8.50
2018-12-26T13:59:42.012Z,8.70
2018-12-26T14:04:46.682Z,9.80
2018-12-26T14:09:51.228Z,8.30
2018-12-26T14:14:55.918Z,7.40
2018-12-26T14:20:00.679Z,6.70
2018-12-26T14:25:06.208Z,7.00
2018-12-26T14:30:12.907Z,7.10
2018-12-26T14:35:17.580Z,6.90
2018-12-26T14:40:22.359Z,6.90
2018-12-26T14:45:27.437Z,6.00
2018-12-26T14:50:32.023Z,5.80
2018-12-26T14:55:36.806Z,5.90
2018-12-26T15:00:43.217Z,5.70
2018-12-26T15:05:47.760Z,5.90
2018-12-26T15:10:52.402Z,6.00
2018-12-26T15:15:56.979Z,6.50
2018-12-26T15:21:01.674Z,5.70
2018-12-26T15:26:06.235Z,5.80
2018-12-26T15:31:10.806Z,6.00
2018-12-26T15:36:15.554Z,6.00
2018-12-26T15:41:20.262Z,5.70
2018-12-26T15:46:24.849Z,6.00
2018-12-26T15:51:29.511Z,5.70
2018-12-26T15:56:34.388Z,5.90
2018-12-26T16:01:39.046Z,6.00
2018-12-26T16:06:43.590Z,6.00
2018-12-26T16:11:48.147Z,6.40
2018-12-26T16:16:52.813Z,5.20
2018-12-26T16:21:57.320Z,5.00
2018-12-26T16:27:01.958Z,1.70
2018-12-26T16:32:06.480Z,4.70
2018-12-26T16:37:11.047Z,4.70
2018-12-26T16:42:16.960Z,4.50
2018-12-26T16:47:21.766Z,4.40
2018-12-26T16:52:26.338Z,4.50
2018-12-26T16:57:31.012Z,4.30
2018-12-26T17:02:35.719Z,3.90
2018-12-26T17:07:40.263Z,4.40
2018-12-26T17:12:45.075Z,4.00
2018-12-26T17:17:49.724Z,4.10
2018-12-26T17:22:54.195Z,4.60
2018-12-26T17:27:58.902Z,4.00
2018-12-26T17:33:03.498Z,3.90
2018-12-26T17:38:08.148Z,4.30
2018-12-26T17:43:13.019Z,4.20
2018-12-26T17:48:17.516Z,3.80
2018-12-26T17:53:30.262Z,3.80
2018-12-26T17:58:38.879Z,3.90
2018-12-26T18:03:43.577Z,4.30
2018-12-26T18:08:48.349Z,4.40
2018-12-26T18:13:53.368Z,4.30
2018-12-26T18:18:58.419Z,3.90
2018-12-26T18:24:03.225Z,3.40
2018-12-26T18:29:07.835Z,3.80
2018-12-26T18:34:12.574Z,3.90
2018-12-26T18:39:17.348Z,3.40
2018-12-26T18:44:22.032Z,3.30
2018-12-26T18:49:26.598Z,3.80
2018-12-26T18:54:31.351Z,4.30
2018-12-26T18:59:35.971Z,3.90
2018-12-26T19:04:40.844Z,3.60
2018-12-26T19:09:45.737Z,4.10
2018-12-26T19:14:50.564Z,3.80
2018-12-26T19:19:55.305Z,3.30
2018-12-26T19:25:00.029Z,3.10
2018-12-26T19:30:05.584Z,3.40
2018-12-26T19:35:13.271Z,8.30
2018-12-26T19:40:18.055Z,3.80
2018-12-26T19:45:22.796Z,4.10
2018-12-26T19:50:28.058Z,3.80
2018-12-26T19:55:33.380Z,3.80
2018-12-26T20:00:38.848Z,3.90
2018-12-26T20:05:44.372Z,4.00
2018-12-26T20:10:49.446Z,4.10
2018-12-26T20:15:54.197Z,3.50
2018-12-26T20:20:59.076Z,3.90
2018-12-26T20:26:03.818Z,3.50
2018-12-26T20:31:08.666Z,3.40
2018-12-26T20:36:13.464Z,3.10
2018-12-26T20:41:18.293Z,5.40
2018-12-26T20:46:26.939Z,2.90
2018-12-26T20:51:34.537Z,1.70
2018-12-26T20:56:41.483Z,2.90
2018-12-26T21:01:48.474Z,2.70
2018-12-26T21:06:54.309Z,2.70
2018-12-26T21:11:59.765Z,2.60
2018-12-26T21:17:05.019Z,2.40
2018-12-26T21:22:10.082Z,2.50
2018-12-26T21:27:19.227Z,2.60
2018-12-26T21:32:23.972Z,2.50
2018-12-26T21:37:32.152Z,2.50
2018-12-26T21:42:37.750Z,2.80
2018-12-26T21:47:42.609Z,2.50
2018-12-26T21:52:49.587Z,2.50
2018-12-26T21:57:54.485Z,2.70
2018-12-26T22:03:00.910Z,2.60
2018-12-26T22:08:05.860Z,2.90
2018-12-26T22:13:11.766Z,2.60
2018-12-26T22:18:20.760Z,3.20
2018-12-26T22:23:25.590Z,3.80
2018-12-26T22:28:32.678Z,4.20
2018-12-26T22:33:40.423Z,4.60
2018-12-26T22:38:46.555Z,4.40
2018-12-26T22:43:51.551Z,4.90
2018-12-26T22:48:56.397Z,5.30
2018-12-26T22:54:01.128Z,5.50
2018-12-26T22:59:05.949Z,4.30
2018-12-26T23:04:11.101Z,4.30
2018-12-26T23:09:15.973Z,4.50
2018-12-26T23:14:21.335Z,4.10
2018-12-26T23:19:26.605Z,3.90
2018-12-26T23:24:31.725Z,4.40
2018-12-26T23:29:36.628Z,4.60
2018-12-26T23:34:41.459Z,4.40
2018-12-26T23:39:46.330Z,3.80
2018-12-26T23:44:51.249Z,3.70
2018-12-26T23:49:56.565Z,3.60
2018-12-26T23:55:01.489Z,3.70
